sensor_id;sensor_type;location;lat;lon;timestamp;P1;durP1;ratioP1;P2;durP2;ratioP2
40997;SDS011;26740;45.944;12.480;2022-07-21T00:01:23;9.15;;;3.65;;
40997;SDS011;26740;45.944;12.480;2022-07-21T00:03:49;8.18;;;3.45;;
40997;SDS011;26740;45.944;12.480;2022-07-21T00:06:15;7.25;;;3.60;;
40997;SDS011;26740;45.944;12.480;2022-07-21T00:08:40;8.25;;;3.83;;
40997;SDS011;26740;45.944;12.480;2022-07-21T00:11:06;7.18;;;3.65;;
40997;SDS011;26740;45.944;12.480;2022-07-21T00:13:32;7.50;;;3.60;;
40997;SDS011;26740;45.944;12.480;2022-07-21T00:15:57;8.15;;;3.55;;
40997;SDS011;26740;45.944;12.480;2022-07-21T00:18:23;5.90;;;3.92;;
40997;SDS011;26740;45.944;12.480;2022-07-21T00:20:54;6.32;;;3.35;;
40997;SDS011;26740;45.944;12.480;2022-07-21T00:23:21;6.50;;;3.60;;
40997;SDS011;26740;45.944;12.480;2022-07-21T00:25:48;7.30;;;3.72;;
40997;SDS011;26740;45.944;12.480;2022-07-21T00:28:14;6.95;;;3.22;;
40997;SDS011;26740;45.944;12.480;2022-07-21T00:30:40;15.00;;;3.95;;
40997;SDS011;26740;45.944;12.480;2022-07-21T00:33:05;6.55;;;3.45;;
40997;SDS011;26740;45.944;12.480;2022-07-21T00:35:31;7.65;;;3.60;;
40997;SDS011;26740;45.944;12.480;2022-07-21T00:37:57;11.07;;;4.40;;
40997;SDS011;26740;45.944;12.480;2022-07-21T00:40:23;9.88;;;4.10;;
40997;SDS011;26740;45.944;12.480;2022-07-21T00:42:49;7.38;;;3.40;;
40997;SDS011;26740;45.944;12.480;2022-07-21T00:45:15;7.30;;;3.40;;
40997;SDS011;26740;45.944;12.480;2022-07-21T00:47:41;5.22;;;3.20;;
40997;SDS011;26740;45.944;12.480;2022-07-21T00:50:08;4.43;;;3.03;;
40997;SDS011;26740;45.944;12.480;2022-07-21T00:52:37;6.90;;;4.30;;
40997;SDS011;26740;45.944;12.480;2022-07-21T00:55:04;6.03;;;4.05;;
40997;SDS011;26740;45.944;12.480;2022-07-21T00:57:31;6.85;;;3.80;;
40997;SDS011;26740;45.944;12.480;2022-07-21T00:59:58;5.05;;;3.53;;
40997;SDS011;26740;45.944;12.480;2022-07-21T01:02:23;9.73;;;3.53;;
40997;SDS011;26740;45.944;12.480;2022-07-21T01:04:51;7.35;;;3.60;;
40997;SDS011;26740;45.944;12.480;2022-07-21T01:07:17;8.38;;;4.22;;
40997;SDS011;26740;45.944;12.480;2022-07-21T01:09:45;13.57;;;3.78;;
40997;SDS011;26740;45.944;12.480;2022-07-21T01:12:11;5.88;;;4.22;;
40997;SDS011;26740;45.944;12.480;2022-07-21T01:14:37;6.43;;;3.90;;
40997;SDS011;26740;45.944;12.480;2022-07-21T01:17:03;7.68;;;3.90;;
40997;SDS011;26740;45.944;12.480;2022-07-21T01:19:29;6.00;;;3.72;;
40997;SDS011;26740;45.944;12.480;2022-07-21T01:21:55;9.57;;;4.10;;
40997;SDS011;26740;45.944;12.480;2022-07-21T01:24:21;6.30;;;4.05;;
40997;SDS011;26740;45.944;12.480;2022-07-21T01:26:47;4.90;;;3.47;;
40997;SDS011;26740;45.944;12.480;2022-07-21T01:29:16;7.00;;;4.43;;
40997;SDS011;26740;45.944;12.480;2022-07-21T01:31:43;8.07;;;4.60;;
40997;SDS011;26740;45.944;12.480;2022-07-21T01:34:10;7.57;;;4.20;;
40997;SDS011;26740;45.944;12.480;2022-07-21T01:36:36;8.25;;;4.20;;
40997;SDS011;26740;45.944;12.480;2022-07-21T01:39:03;9.65;;;4.05;;
40997;SDS011;26740;45.944;12.480;2022-07-21T01:41:48;7.85;;;3.80;;
40997;SDS011;26740;45.944;12.480;2022-07-21T01:44:14;9.98;;;4.50;;
40997;SDS011;26740;45.944;12.480;2022-07-21T01:46:41;6.78;;;4.70;;
40997;SDS011;26740;45.944;12.480;2022-07-21T01:49:09;8.32;;;3.80;;
40997;SDS011;26740;45.944;12.480;2022-07-21T01:51:36;7.75;;;3.88;;
40997;SDS011;26740;45.944;12.480;2022-07-21T01:54:02;7.22;;;4.47;;
40997;SDS011;26740;45.944;12.480;2022-07-21T01:56:29;6.40;;;3.80;;
40997;SDS011;26740;45.944;12.480;2022-07-21T01:58:55;5.57;;;3.78;;
40997;SDS011;26740;45.944;12.480;2022-07-21T02:01:23;7.40;;;3.88;;
40997;SDS011;26740;45.944;12.480;2022-07-21T02:03:51;7.95;;;4.13;;
40997;SDS011;26740;45.944;12.480;2022-07-21T02:06:18;10.77;;;3.72;;
40997;SDS011;26740;45.944;12.480;2022-07-21T02:08:45;8.30;;;4.00;;
40997;SDS011;26740;45.944;12.480;2022-07-21T02:11:11;16.00;;;5.18;;
40997;SDS011;26740;45.944;12.480;2022-07-21T02:13:38;7.13;;;4.30;;
40997;SDS011;26740;45.944;12.480;2022-07-21T02:16:05;6.75;;;3.80;;
40997;SDS011;26740;45.944;12.480;2022-07-21T02:18:31;7.30;;;4.75;;
40997;SDS011;26740;45.944;12.480;2022-07-21T02:20:56;8.05;;;4.05;;
40997;SDS011;26740;45.944;12.480;2022-07-21T02:23:22;8.65;;;4.60;;
40997;SDS011;26740;45.944;12.480;2022-07-21T02:25:50;8.10;;;4.85;;
40997;SDS011;26740;45.944;12.480;2022-07-21T02:28:17;5.80;;;4.25;;
40997;SDS011;26740;45.944;12.480;2022-07-21T02:30:44;10.95;;;4.22;;
40997;SDS011;26740;45.944;12.480;2022-07-21T02:33:10;4.50;;;3.70;;
40997;SDS011;26740;45.944;12.480;2022-07-21T02:35:36;9.93;;;4.32;;
40997;SDS011;26740;45.944;12.480;2022-07-21T02:38:02;10.63;;;5.03;;
40997;SDS011;26740;45.944;12.480;2022-07-21T02:40:28;6.07;;;3.72;;
40997;SDS011;26740;45.944;12.480;2022-07-21T02:42:54;4.35;;;3.95;;
40997;SDS011;26740;45.944;12.480;2022-07-21T02:45:19;6.10;;;4.45;;
40997;SDS011;26740;45.944;12.480;2022-07-21T02:47:49;8.25;;;4.38;;
40997;SDS011;26740;45.944;12.480;2022-07-21T02:50:19;8.15;;;4.22;;
40997;SDS011;26740;45.944;12.480;2022-07-21T02:52:46;6.40;;;4.57;;
40997;SDS011;26740;45.944;12.480;2022-07-21T02:55:12;12.15;;;4.78;;
40997;SDS011;26740;45.944;12.480;2022-07-21T02:57:38;6.70;;;4.65;;
40997;SDS011;26740;45.944;12.480;2022-07-21T03:00:04;7.82;;;4.57;;
40997;SDS011;26740;45.944;12.480;2022-07-21T03:02:32;7.82;;;4.22;;
40997;SDS011;26740;45.944;12.480;2022-07-21T03:04:58;6.47;;;4.82;;
40997;SDS011;26740;45.944;12.480;2022-07-21T03:07:24;5.25;;;4.50;;
40997;SDS011;26740;45.944;12.480;2022-07-21T03:09:49;9.20;;;5.15;;
40997;SDS011;26740;45.944;12.480;2022-07-21T03:12:15;9.65;;;4.40;;
40997;SDS011;26740;45.944;12.480;2022-07-21T03:14:41;6.60;;;4.35;;
40997;SDS011;26740;45.944;12.480;2022-07-21T03:17:07;5.97;;;4.25;;
40997;SDS011;26740;45.944;12.480;2022-07-21T03:19:32;6.90;;;4.90;;
40997;SDS011;26740;45.944;12.480;2022-07-21T03:21:58;7.55;;;4.95;;
40997;SDS011;26740;45.944;12.480;2022-07-21T03:24:24;8.95;;;5.25;;
40997;SDS011;26740;45.944;12.480;2022-07-21T03:26:49;7.50;;;4.88;;
40997;SDS011;26740;45.944;12.480;2022-07-21T03:29:15;6.53;;;4.60;;
40997;SDS011;26740;45.944;12.480;2022-07-21T03:31:41;8.63;;;4.70;;
40997;SDS011;26740;45.944;12.480;2022-07-21T03:34:06;7.97;;;4.82;;
40997;SDS011;26740;45.944;12.480;2022-07-21T03:36:32;6.88;;;4.60;;
40997;SDS011;26740;45.944;12.480;2022-07-21T03:38:58;6.18;;;5.50;;
40997;SDS011;26740;45.944;12.480;2022-07-21T03:41:24;5.47;;;4.47;;
40997;SDS011;26740;45.944;12.480;2022-07-21T03:43:50;9.77;;;5.32;;
40997;SDS011;26740;45.944;12.480;2022-07-21T03:46:15;6.30;;;5.28;;
40997;SDS011;26740;45.944;12.480;2022-07-21T03:48:41;10.98;;;4.88;;
40997;SDS011;26740;45.944;12.480;2022-07-21T03:51:06;8.25;;;4.75;;
40997;SDS011;26740;45.944;12.480;2022-07-21T03:53:33;8.55;;;4.63;;
40997;SDS011;26740;45.944;12.480;2022-07-21T03:55:59;12.20;;;4.93;;
40997;SDS011;26740;45.944;12.480;2022-07-21T03:58:25;8.95;;;4.90;;
40997;SDS011;26740;45.944;12.480;2022-07-21T04:00:50;15.43;;;5.28;;
40997;SDS011;26740;45.944;12.480;2022-07-21T04:03:16;11.57;;;5.10;;
40997;SDS011;26740;45.944;12.480;2022-07-21T04:05:41;12.82;;;5.30;;
40997;SDS011;26740;45.944;12.480;2022-07-21T04:08:08;7.95;;;5.20;;
40997;SDS011;26740;45.944;12.480;2022-07-21T04:10:36;10.77;;;5.50;;
40997;SDS011;26740;45.944;12.480;2022-07-21T04:13:05;11.10;;;5.10;;
40997;SDS011;26740;45.944;12.480;2022-07-21T04:15:33;7.78;;;5.43;;
40997;SDS011;26740;45.944;12.480;2022-07-21T04:18:00;8.70;;;4.68;;
40997;SDS011;26740;45.944;12.480;2022-07-21T04:20:26;12.20;;;5.30;;
40997;SDS011;26740;45.944;12.480;2022-07-21T04:22:52;10.88;;;5.03;;
40997;SDS011;26740;45.944;12.480;2022-07-21T04:25:18;12.05;;;4.45;;
40997;SDS011;26740;45.944;12.480;2022-07-21T04:27:45;11.18;;;5.00;;
40997;SDS011;26740;45.944;12.480;2022-07-21T04:30:16;9.38;;;5.78;;
40997;SDS011;26740;45.944;12.480;2022-07-21T04:32:43;7.95;;;4.95;;
40997;SDS011;26740;45.944;12.480;2022-07-21T04:35:09;7.32;;;4.50;;
40997;SDS011;26740;45.944;12.480;2022-07-21T04:37:35;7.47;;;4.90;;
40997;SDS011;26740;45.944;12.480;2022-07-21T04:40:02;9.50;;;5.00;;
40997;SDS011;26740;45.944;12.480;2022-07-21T04:42:32;5.60;;;4.85;;
40997;SDS011;26740;45.944;12.480;2022-07-21T04:44:58;10.52;;;6.55;;
40997;SDS011;26740;45.944;12.480;2022-07-21T04:47:24;8.57;;;5.30;;
40997;SDS011;26740;45.944;12.480;2022-07-21T04:49:49;6.95;;;4.55;;
40997;SDS011;26740;45.944;12.480;2022-07-21T04:52:15;10.52;;;5.20;;
40997;SDS011;26740;45.944;12.480;2022-07-21T04:54:41;12.65;;;5.28;;
40997;SDS011;26740;45.944;12.480;2022-07-21T04:57:06;11.40;;;4.60;;
40997;SDS011;26740;45.944;12.480;2022-07-21T04:59:33;8.45;;;4.90;;
40997;SDS011;26740;45.944;12.480;2022-07-21T05:02:00;11.25;;;5.22;;
40997;SDS011;26740;45.944;12.480;2022-07-21T05:04:26;10.18;;;5.13;;
40997;SDS011;26740;45.944;12.480;2022-07-21T05:06:52;10.13;;;4.97;;
40997;SDS011;26740;45.944;12.480;2022-07-21T05:09:18;9.52;;;4.97;;
40997;SDS011;26740;45.944;12.480;2022-07-21T05:11:44;8.50;;;4.82;;
40997;SDS011;26740;45.944;12.480;2022-07-21T05:14:09;8.95;;;4.15;;
40997;SDS011;26740;45.944;12.480;2022-07-21T05:16:35;6.85;;;4.20;;
40997;SDS011;26740;45.944;12.480;2022-07-21T05:19:01;7.05;;;4.18;;
40997;SDS011;26740;45.944;12.480;2022-07-21T05:21:27;7.30;;;3.30;;
40997;SDS011;26740;45.944;12.480;2022-07-21T05:23:52;6.93;;;4.35;;
40997;SDS011;26740;45.944;12.480;2022-07-21T05:26:18;10.30;;;4.20;;
40997;SDS011;26740;45.944;12.480;2022-07-21T05:28:44;8.80;;;3.97;;
40997;SDS011;26740;45.944;12.480;2022-07-21T05:31:09;9.00;;;4.00;;
40997;SDS011;26740;45.944;12.480;2022-07-21T05:33:35;9.60;;;3.65;;
40997;SDS011;26740;45.944;12.480;2022-07-21T05:36:02;12.35;;;3.58;;
40997;SDS011;26740;45.944;12.480;2022-07-21T05:38:31;9.13;;;4.00;;
40997;SDS011;26740;45.944;12.480;2022-07-21T05:40:57;9.32;;;3.70;;
40997;SDS011;26740;45.944;12.480;2022-07-21T05:43:28;12.05;;;3.47;;
40997;SDS011;26740;45.944;12.480;2022-07-21T05:45:55;10.07;;;4.10;;
40997;SDS011;26740;45.944;12.480;2022-07-21T05:48:22;7.28;;;3.15;;
40997;SDS011;26740;45.944;12.480;2022-07-21T05:50:47;6.45;;;3.50;;
40997;SDS011;26740;45.944;12.480;2022-07-21T05:53:13;11.15;;;3.58;;
40997;SDS011;26740;45.944;12.480;2022-07-21T05:55:39;9.38;;;3.15;;
40997;SDS011;26740;45.944;12.480;2022-07-21T05:58:04;8.75;;;3.20;;
40997;SDS011;26740;45.944;12.480;2022-07-21T06:00:30;9.65;;;2.80;;
40997;SDS011;26740;45.944;12.480;2022-07-21T06:02:55;10.00;;;3.40;;
40997;SDS011;26740;45.944;12.480;2022-07-21T06:05:21;6.78;;;3.30;;
40997;SDS011;26740;45.944;12.480;2022-07-21T06:07:47;8.60;;;3.42;;
40997;SDS011;26740;45.944;12.480;2022-07-21T06:10:13;8.68;;;3.20;;
40997;SDS011;26740;45.944;12.480;2022-07-21T06:12:39;9.80;;;3.30;;
40997;SDS011;26740;45.944;12.480;2022-07-21T06:15:05;4.90;;;2.97;;
40997;SDS011;26740;45.944;12.480;2022-07-21T06:17:37;10.00;;;4.03;;
40997;SDS011;26740;45.944;12.480;2022-07-21T06:22:38;11.27;;;3.50;;
40997;SDS011;26740;45.944;12.480;2022-07-21T06:25:04;6.15;;;3.22;;
40997;SDS011;26740;45.944;12.480;2022-07-21T06:27:30;8.27;;;3.42;;
40997;SDS011;26740;45.944;12.480;2022-07-21T06:29:57;7.80;;;3.95;;
40997;SDS011;26740;45.944;12.480;2022-07-21T06:32:24;6.93;;;3.22;;
40997;SDS011;26740;45.944;12.480;2022-07-21T06:34:51;7.57;;;3.70;;
40997;SDS011;26740;45.944;12.480;2022-07-21T06:37:16;6.78;;;3.78;;
40997;SDS011;26740;45.944;12.480;2022-07-21T06:39:42;8.48;;;3.85;;
40997;SDS011;26740;45.944;12.480;2022-07-21T06:42:08;10.65;;;3.90;;
40997;SDS011;26740;45.944;12.480;2022-07-21T06:44:34;11.35;;;3.60;;
40997;SDS011;26740;45.944;12.480;2022-07-21T06:47:00;8.70;;;3.47;;
40997;SDS011;26740;45.944;12.480;2022-07-21T06:49:32;10.75;;;3.88;;
40997;SDS011;26740;45.944;12.480;2022-07-21T06:51:58;17.75;;;4.63;;
40997;SDS011;26740;45.944;12.480;2022-07-21T06:54:24;14.73;;;3.78;;
40997;SDS011;26740;45.944;12.480;2022-07-21T06:56:50;9.30;;;3.65;;
40997;SDS011;26740;45.944;12.480;2022-07-21T06:59:15;9.85;;;3.00;;
40997;SDS011;26740;45.944;12.480;2022-07-21T07:01:41;18.17;;;4.07;;
40997;SDS011;26740;45.944;12.480;2022-07-21T07:04:08;8.90;;;3.42;;
40997;SDS011;26740;45.944;12.480;2022-07-21T07:06:33;11.75;;;3.60;;
40997;SDS011;26740;45.944;12.480;2022-07-21T07:08:59;16.83;;;3.22;;
40997;SDS011;26740;45.944;12.480;2022-07-21T07:11:25;13.90;;;3.10;;
40997;SDS011;26740;45.944;12.480;2022-07-21T07:13:50;15.30;;;3.33;;
40997;SDS011;26740;45.944;12.480;2022-07-21T07:16:16;10.90;;;2.47;;
40997;SDS011;26740;45.944;12.480;2022-07-21T07:18:42;9.55;;;2.95;;
40997;SDS011;26740;45.944;12.480;2022-07-21T07:21:07;20.80;;;3.70;;
40997;SDS011;26740;45.944;12.480;2022-07-21T07:23:33;12.48;;;3.08;;
40997;SDS011;26740;45.944;12.480;2022-07-21T07:25:59;13.55;;;2.75;;
40997;SDS011;26740;45.944;12.480;2022-07-21T07:28:25;12.20;;;2.60;;
40997;SDS011;26740;45.944;12.480;2022-07-21T07:30:50;7.93;;;2.08;;
40997;SDS011;26740;45.944;12.480;2022-07-21T07:33:16;10.35;;;2.47;;
40997;SDS011;26740;45.944;12.480;2022-07-21T07:35:42;7.60;;;2.20;;
40997;SDS011;26740;45.944;12.480;2022-07-21T07:38:11;7.18;;;2.42;;
40997;SDS011;26740;45.944;12.480;2022-07-21T07:40:38;4.75;;;1.75;;
40997;SDS011;26740;45.944;12.480;2022-07-21T07:43:04;3.90;;;2.38;;
40997;SDS011;26740;45.944;12.480;2022-07-21T07:45:29;4.15;;;2.20;;
40997;SDS011;26740;45.944;12.480;2022-07-21T07:47:55;4.57;;;1.70;;
40997;SDS011;26740;45.944;12.480;2022-07-21T07:50:21;7.20;;;1.73;;
40997;SDS011;26740;45.944;12.480;2022-07-21T07:52:46;4.18;;;2.15;;
40997;SDS011;26740;45.944;12.480;2022-07-21T07:55:12;4.45;;;2.05;;
40997;SDS011;26740;45.944;12.480;2022-07-21T07:57:40;7.15;;;2.47;;
40997;SDS011;26740;45.944;12.480;2022-07-21T08:00:08;5.50;;;2.50;;
40997;SDS011;26740;45.944;12.480;2022-07-21T08:02:36;5.93;;;2.50;;
40997;SDS011;26740;45.944;12.480;2022-07-21T08:05:02;9.20;;;1.65;;
40997;SDS011;26740;45.944;12.480;2022-07-21T08:07:29;5.72;;;1.75;;
40997;SDS011;26740;45.944;12.480;2022-07-21T08:09:55;7.00;;;2.50;;
40997;SDS011;26740;45.944;12.480;2022-07-21T08:12:21;8.50;;;2.63;;
40997;SDS011;26740;45.944;12.480;2022-07-21T08:14:47;9.70;;;2.92;;
40997;SDS011;26740;45.944;12.480;2022-07-21T08:17:12;11.05;;;2.75;;
40997;SDS011;26740;45.944;12.480;2022-07-21T08:19:38;5.72;;;2.40;;
40997;SDS011;26740;45.944;12.480;2022-07-21T08:22:04;5.43;;;3.17;;
40997;SDS011;26740;45.944;12.480;2022-07-21T08:24:29;3.33;;;2.80;;
40997;SDS011;26740;45.944;12.480;2022-07-21T08:26:55;10.15;;;3.22;;
40997;SDS011;26740;45.944;12.480;2022-07-21T08:29:21;9.35;;;2.58;;
40997;SDS011;26740;45.944;12.480;2022-07-21T08:31:47;13.82;;;2.78;;
40997;SDS011;26740;45.944;12.480;2022-07-21T08:34:12;9.63;;;2.90;;
40997;SDS011;26740;45.944;12.480;2022-07-21T08:36:38;7.55;;;3.08;;
40997;SDS011;26740;45.944;12.480;2022-07-21T08:39:04;9.10;;;2.40;;
40997;SDS011;26740;45.944;12.480;2022-07-21T08:41:30;8.88;;;2.72;;
40997;SDS011;26740;45.944;12.480;2022-07-21T08:43:57;5.28;;;2.72;;
40997;SDS011;26740;45.944;12.480;2022-07-21T08:46:23;6.05;;;2.63;;
40997;SDS011;26740;45.944;12.480;2022-07-21T08:48:50;6.72;;;2.75;;
40997;SDS011;26740;45.944;12.480;2022-07-21T08:51:16;5.90;;;2.20;;
40997;SDS011;26740;45.944;12.480;2022-07-21T08:53:48;6.22;;;2.60;;
40997;SDS011;26740;45.944;12.480;2022-07-21T08:56:14;5.05;;;2.60;;
40997;SDS011;26740;45.944;12.480;2022-07-21T08:58:40;7.80;;;2.85;;
40997;SDS011;26740;45.944;12.480;2022-07-21T09:01:06;6.75;;;2.58;;
40997;SDS011;26740;45.944;12.480;2022-07-21T09:03:32;3.53;;;2.88;;
40997;SDS011;26740;45.944;12.480;2022-07-21T09:06:03;6.47;;;3.13;;
40997;SDS011;26740;45.944;12.480;2022-07-21T09:08:32;18.13;;;3.50;;
40997;SDS011;26740;45.944;12.480;2022-07-21T09:11:16;4.85;;;3.42;;
40997;SDS011;26740;45.944;12.480;2022-07-21T09:13:43;7.65;;;3.45;;
40997;SDS011;26740;45.944;12.480;2022-07-21T09:16:11;9.48;;;2.90;;
40997;SDS011;26740;45.944;12.480;2022-07-21T09:18:50;6.55;;;2.72;;
40997;SDS011;26740;45.944;12.480;2022-07-21T09:21:18;3.60;;;2.33;;
40997;SDS011;26740;45.944;12.480;2022-07-21T09:23:44;6.32;;;2.30;;
40997;SDS011;26740;45.944;12.480;2022-07-21T09:26:11;3.25;;;2.60;;
40997;SDS011;26740;45.944;12.480;2022-07-21T09:28:36;4.78;;;2.65;;
40997;SDS011;26740;45.944;12.480;2022-07-21T09:31:03;7.03;;;2.53;;
40997;SDS011;26740;45.944;12.480;2022-07-21T09:33:36;5.50;;;2.70;;
40997;SDS011;26740;45.944;12.480;2022-07-21T09:38:42;7.95;;;3.08;;
40997;SDS011;26740;45.944;12.480;2022-07-21T09:41:21;4.93;;;1.90;;
40997;SDS011;26740;45.944;12.480;2022-07-21T09:43:50;4.20;;;2.15;;
40997;SDS011;26740;45.944;12.480;2022-07-21T09:46:23;5.70;;;1.40;;
40997;SDS011;26740;45.944;12.480;2022-07-21T09:48:53;5.05;;;1.90;;
40997;SDS011;26740;45.944;12.480;2022-07-21T09:53:51;5.47;;;2.03;;
40997;SDS011;26740;45.944;12.480;2022-07-21T09:56:18;4.53;;;2.15;;
40997;SDS011;26740;45.944;12.480;2022-07-21T09:58:48;4.72;;;1.85;;
40997;SDS011;26740;45.944;12.480;2022-07-21T10:01:16;4.18;;;2.03;;
40997;SDS011;26740;45.944;12.480;2022-07-21T10:03:43;4.93;;;1.98;;
40997;SDS011;26740;45.944;12.480;2022-07-21T10:06:11;4.70;;;2.25;;
40997;SDS011;26740;45.944;12.480;2022-07-21T10:08:37;3.83;;;2.00;;
40997;SDS011;26740;45.944;12.480;2022-07-21T10:11:07;3.83;;;2.10;;
40997;SDS011;26740;45.944;12.480;2022-07-21T10:13:33;8.70;;;2.08;;
40997;SDS011;26740;45.944;12.480;2022-07-21T10:15:59;5.38;;;2.13;;
40997;SDS011;26740;45.944;12.480;2022-07-21T10:18:26;5.28;;;2.08;;
40997;SDS011;26740;45.944;12.480;2022-07-21T10:23:54;3.45;;;1.63;;
40997;SDS011;26740;45.944;12.480;2022-07-21T10:26:20;5.53;;;2.33;;
40997;SDS011;26740;45.944;12.480;2022-07-21T10:28:46;6.47;;;2.30;;
40997;SDS011;26740;45.944;12.480;2022-07-21T10:31:16;3.38;;;1.85;;
40997;SDS011;26740;45.944;12.480;2022-07-21T10:41:43;10.13;;;2.83;;
40997;SDS011;26740;45.944;12.480;2022-07-21T10:49:56;6.20;;;2.17;;
40997;SDS011;26740;45.944;12.480;2022-07-21T10:57:39;5.63;;;2.75;;
40997;SDS011;26740;45.944;12.480;2022-07-21T11:00:16;8.02;;;2.60;;
40997;SDS011;26740;45.944;12.480;2022-07-21T11:02:51;2.67;;;2.05;;
40997;SDS011;26740;45.944;12.480;2022-07-21T11:05:19;3.63;;;1.80;;
40997;SDS011;26740;45.944;12.480;2022-07-21T11:10:40;7.57;;;1.73;;
40997;SDS011;26740;45.944;12.480;2022-07-21T11:13:07;7.88;;;2.50;;
40997;SDS011;26740;45.944;12.480;2022-07-21T11:18:23;2.53;;;1.42;;
40997;SDS011;26740;45.944;12.480;2022-07-21T11:21:07;2.50;;;1.67;;
40997;SDS011;26740;45.944;12.480;2022-07-21T11:23:47;8.13;;;1.73;;
40997;SDS011;26740;45.944;12.480;2022-07-21T11:26:15;8.60;;;1.52;;
40997;SDS011;26740;45.944;12.480;2022-07-21T11:28:43;11.18;;;2.38;;
40997;SDS011;26740;45.944;12.480;2022-07-21T11:33:46;8.77;;;2.20;;
40997;SDS011;26740;45.944;12.480;2022-07-21T11:36:23;9.57;;;2.03;;
40997;SDS011;26740;45.944;12.480;2022-07-21T11:38:57;6.63;;;1.50;;
40997;SDS011;26740;45.944;12.480;2022-07-21T11:41:31;7.72;;;1.77;;
40997;SDS011;26740;45.944;12.480;2022-07-21T11:43:58;2.13;;;1.55;;
40997;SDS011;26740;45.944;12.480;2022-07-21T11:46:24;7.70;;;1.77;;
40997;SDS011;26740;45.944;12.480;2022-07-21T11:49:00;5.03;;;1.58;;
40997;SDS011;26740;45.944;12.480;2022-07-21T11:51:27;4.53;;;1.70;;
40997;SDS011;26740;45.944;12.480;2022-07-21T11:53:53;6.65;;;1.77;;
40997;SDS011;26740;45.944;12.480;2022-07-21T11:56:19;7.40;;;2.28;;
40997;SDS011;26740;45.944;12.480;2022-07-21T11:58:44;4.70;;;1.45;;
40997;SDS011;26740;45.944;12.480;2022-07-21T12:01:10;3.75;;;1.50;;
40997;SDS011;26740;45.944;12.480;2022-07-21T12:03:48;4.25;;;1.80;;
40997;SDS011;26740;45.944;12.480;2022-07-21T12:06:16;3.63;;;1.67;;
40997;SDS011;26740;45.944;12.480;2022-07-21T12:08:43;9.35;;;1.88;;
40997;SDS011;26740;45.944;12.480;2022-07-21T12:11:10;6.00;;;1.77;;
40997;SDS011;26740;45.944;12.480;2022-07-21T12:13:56;3.85;;;1.70;;
40997;SDS011;26740;45.944;12.480;2022-07-21T12:16:24;4.45;;;1.88;;
40997;SDS011;26740;45.944;12.480;2022-07-21T12:19:07;5.88;;;2.47;;
40997;SDS011;26740;45.944;12.480;2022-07-21T12:27:16;2.42;;;2.22;;
40997;SDS011;26740;45.944;12.480;2022-07-21T12:29:43;8.95;;;3.03;;
40997;SDS011;26740;45.944;12.480;2022-07-21T12:32:09;8.32;;;3.92;;
40997;SDS011;26740;45.944;12.480;2022-07-21T12:34:48;6.15;;;3.83;;
40997;SDS011;26740;45.944;12.480;2022-07-21T12:37:16;4.95;;;3.15;;
40997;SDS011;26740;45.944;12.480;2022-07-21T12:39:41;7.82;;;3.38;;
40997;SDS011;26740;45.944;12.480;2022-07-21T12:42:32;10.38;;;3.58;;
40997;SDS011;26740;45.944;12.480;2022-07-21T12:45:11;10.95;;;3.88;;
40997;SDS011;26740;45.944;12.480;2022-07-21T12:48:04;4.43;;;3.78;;
40997;SDS011;26740;45.944;12.480;2022-07-21T12:50:36;10.68;;;4.18;;
40997;SDS011;26740;45.944;12.480;2022-07-21T12:53:10;8.00;;;3.90;;
40997;SDS011;26740;45.944;12.480;2022-07-21T12:55:36;5.47;;;3.38;;
40997;SDS011;26740;45.944;12.480;2022-07-21T12:58:03;4.72;;;3.40;;
40997;SDS011;26740;45.944;12.480;2022-07-21T13:00:30;7.45;;;3.85;;
40997;SDS011;26740;45.944;12.480;2022-07-21T13:02:56;9.63;;;3.75;;
40997;SDS011;26740;45.944;12.480;2022-07-21T13:05:24;8.18;;;2.97;;
40997;SDS011;26740;45.944;12.480;2022-07-21T13:07:51;6.53;;;4.20;;
40997;SDS011;26740;45.944;12.480;2022-07-21T13:10:17;5.82;;;3.35;;
40997;SDS011;26740;45.944;12.480;2022-07-21T13:12:43;12.02;;;3.38;;
40997;SDS011;26740;45.944;12.480;2022-07-21T13:15:09;6.38;;;4.30;;
40997;SDS011;26740;45.944;12.480;2022-07-21T13:17:35;4.47;;;3.45;;
40997;SDS011;26740;45.944;12.480;2022-07-21T13:20:01;8.60;;;3.78;;
40997;SDS011;26740;45.944;12.480;2022-07-21T13:22:28;6.78;;;3.40;;
40997;SDS011;26740;45.944;12.480;2022-07-21T13:24:54;4.22;;;3.33;;
40997;SDS011;26740;45.944;12.480;2022-07-21T13:27:20;4.85;;;4.43;;
40997;SDS011;26740;45.944;12.480;2022-07-21T13:29:46;7.75;;;3.83;;
40997;SDS011;26740;45.944;12.480;2022-07-21T13:32:12;5.10;;;3.42;;
40997;SDS011;26740;45.944;12.480;2022-07-21T13:34:38;7.32;;;2.97;;
40997;SDS011;26740;45.944;12.480;2022-07-21T13:37:03;5.40;;;3.33;;
40997;SDS011;26740;45.944;12.480;2022-07-21T13:39:29;6.07;;;3.22;;
40997;SDS011;26740;45.944;12.480;2022-07-21T13:41:56;4.60;;;2.63;;
40997;SDS011;26740;45.944;12.480;2022-07-21T13:44:22;8.98;;;3.22;;
40997;SDS011;26740;45.944;12.480;2022-07-21T13:46:48;8.40;;;2.65;;
40997;SDS011;26740;45.944;12.480;2022-07-21T13:49:14;2.60;;;2.33;;
40997;SDS011;26740;45.944;12.480;2022-07-21T13:51:40;8.20;;;3.20;;
40997;SDS011;26740;45.944;12.480;2022-07-21T13:54:06;9.70;;;3.05;;
40997;SDS011;26740;45.944;12.480;2022-07-21T13:56:32;3.38;;;2.90;;
40997;SDS011;26740;45.944;12.480;2022-07-21T13:58:57;4.43;;;2.95;;
40997;SDS011;26740;45.944;12.480;2022-07-21T14:01:23;3.70;;;2.97;;
40997;SDS011;26740;45.944;12.480;2022-07-21T14:03:49;13.20;;;3.13;;
40997;SDS011;26740;45.944;12.480;2022-07-21T14:06:15;8.40;;;3.15;;
40997;SDS011;26740;45.944;12.480;2022-07-21T14:08:42;4.80;;;2.88;;
40997;SDS011;26740;45.944;12.480;2022-07-21T14:11:09;9.48;;;3.13;;
40997;SDS011;26740;45.944;12.480;2022-07-21T14:13:38;12.98;;;3.05;;
40997;SDS011;26740;45.944;12.480;2022-07-21T14:16:05;3.75;;;2.25;;
40997;SDS011;26740;45.944;12.480;2022-07-21T14:18:31;4.60;;;3.13;;
40997;SDS011;26740;45.944;12.480;2022-07-21T14:20:57;8.45;;;3.40;;
40997;SDS011;26740;45.944;12.480;2022-07-21T14:23:23;5.45;;;3.35;;
40997;SDS011;26740;45.944;12.480;2022-07-21T14:25:50;12.82;;;3.65;;
40997;SDS011;26740;45.944;12.480;2022-07-21T14:28:17;4.75;;;3.30;;
40997;SDS011;26740;45.944;12.480;2022-07-21T14:30:43;3.08;;;2.45;;
40997;SDS011;26740;45.944;12.480;2022-07-21T14:33:09;9.95;;;2.85;;
40997;SDS011;26740;45.944;12.480;2022-07-21T14:35:35;7.55;;;2.97;;
40997;SDS011;26740;45.944;12.480;2022-07-21T14:38:01;5.80;;;3.15;;
40997;SDS011;26740;45.944;12.480;2022-07-21T14:40:26;7.03;;;2.90;;
40997;SDS011;26740;45.944;12.480;2022-07-21T14:42:52;6.25;;;3.17;;
40997;SDS011;26740;45.944;12.480;2022-07-21T14:45:18;4.40;;;3.92;;
40997;SDS011;26740;45.944;12.480;2022-07-21T14:47:45;6.72;;;3.35;;
40997;SDS011;26740;45.944;12.480;2022-07-21T14:50:12;6.72;;;3.67;;
40997;SDS011;26740;45.944;12.480;2022-07-21T14:52:38;8.82;;;3.60;;
40997;SDS011;26740;45.944;12.480;2022-07-21T14:55:05;9.82;;;3.53;;
40997;SDS011;26740;45.944;12.480;2022-07-21T14:57:32;13.70;;;4.10;;
40997;SDS011;26740;45.944;12.480;2022-07-21T14:59:59;7.25;;;4.00;;
40997;SDS011;26740;45.944;12.480;2022-07-21T15:02:24;9.32;;;4.10;;
40997;SDS011;26740;45.944;12.480;2022-07-21T15:04:50;11.68;;;4.28;;
40997;SDS011;26740;45.944;12.480;2022-07-21T15:07:16;15.00;;;5.38;;
40997;SDS011;26740;45.944;12.480;2022-07-21T15:09:43;4.10;;;3.75;;
40997;SDS011;26740;45.944;12.480;2022-07-21T15:12:09;11.88;;;4.65;;
40997;SDS011;26740;45.944;12.480;2022-07-21T15:14:35;6.60;;;4.68;;